Flight Briefing for CPX431

Departure Arrival
Louis Armstrong New Orleans International Airport (KMSY)
Click to view FAA NOTAMS
Nashville International Airport (KBNA)
Click to view FAA NOTAMS
Departure Time Arrival Time
N/A N/A
Aircraft Distance
B757-200SF 410nm
Departure METAR Arrival METAR
KMSY 252353Z VRB04KT 10SM SCT032 SCT250 24/18 A3002 RMK AO2 LTG DSNT E AND NW RAE36 TSE05B06E36 SLP170 CB DSNT E AND NW MOV E P0000 60000 T02440178 10283 20239 52004 KBNA 252353Z 34008KT 10SM SCT016 OVC027 13/08 A3006 RMK AO2 SLP179 T01280083 10206 20128 51028
Suggested Route
LBY MEI IGB HRTUN CHSNE2


View recent IFR Routes data
Notes



Charts and Procedures

Charts for KMSY
No chart available
Charts for KBNA
No chart available

Windy.com Weather Map